sensor_id;sensor_type;location;lat;lon;timestamp;P1;durP1;ratioP1;P2;durP2;ratioP2
22490;SDS011;11412;50.802;4.350;2024-02-26T00:02:02;2.40;;;1.33;;
22490;SDS011;11412;50.802;4.350;2024-02-26T00:04:28;3.00;;;1.05;;
22490;SDS011;11412;50.802;4.350;2024-02-26T00:06:53;1.58;;;1.10;;
22490;SDS011;11412;50.802;4.350;2024-02-26T00:09:20;1.65;;;1.20;;
22490;SDS011;11412;50.802;4.350;2024-02-26T00:11:46;3.63;;;1.17;;
22490;SDS011;11412;50.802;4.350;2024-02-26T00:14:11;1.30;;;1.20;;
22490;SDS011;11412;50.802;4.350;2024-02-26T00:16:40;2.63;;;1.58;;
22490;SDS011;11412;50.802;4.350;2024-02-26T00:19:06;1.35;;;1.25;;
22490;SDS011;11412;50.802;4.350;2024-02-26T00:21:32;1.23;;;1.10;;
22490;SDS011;11412;50.802;4.350;2024-02-26T00:23:58;1.30;;;1.20;;
22490;SDS011;11412;50.802;4.350;2024-02-26T00:26:23;1.25;;;1.15;;
22490;SDS011;11412;50.802;4.350;2024-02-26T00:28:49;1.95;;;1.00;;
22490;SDS011;11412;50.802;4.350;2024-02-26T00:31:14;3.97;;;1.33;;
22490;SDS011;11412;50.802;4.350;2024-02-26T00:33:40;1.05;;;0.93;;
22490;SDS011;11412;50.802;4.350;2024-02-26T00:36:06;1.30;;;1.20;;
22490;SDS011;11412;50.802;4.350;2024-02-26T00:38:31;1.50;;;1.20;;
22490;SDS011;11412;50.802;4.350;2024-02-26T00:40:58;1.70;;;1.02;;
22490;SDS011;11412;50.802;4.350;2024-02-26T00:43:23;2.42;;;1.00;;
22490;SDS011;11412;50.802;4.350;2024-02-26T00:45:49;1.67;;;1.20;;
22490;SDS011;11412;50.802;4.350;2024-02-26T00:48:18;1.73;;;1.10;;
22490;SDS011;11412;50.802;4.350;2024-02-26T00:50:43;3.25;;;1.10;;
22490;SDS011;11412;50.802;4.350;2024-02-26T00:53:10;2.15;;;1.20;;
22490;SDS011;11412;50.802;4.350;2024-02-26T00:55:35;1.30;;;1.30;;
22490;SDS011;11412;50.802;4.350;2024-02-26T00:58:01;1.00;;;1.00;;
22490;SDS011;11412;50.802;4.350;2024-02-26T01:00:27;1.98;;;1.30;;
22490;SDS011;11412;50.802;4.350;2024-02-26T01:02:52;1.90;;;1.15;;
22490;SDS011;11412;50.802;4.350;2024-02-26T01:05:18;1.27;;;1.15;;
22490;SDS011;11412;50.802;4.350;2024-02-26T01:07:44;1.90;;;1.08;;
22490;SDS011;11412;50.802;4.350;2024-02-26T01:10:09;2.20;;;1.33;;
22490;SDS011;11412;50.802;4.350;2024-02-26T01:12:35;2.38;;;1.00;;
22490;SDS011;11412;50.802;4.350;2024-02-26T01:15:02;3.00;;;1.20;;
22490;SDS011;11412;50.802;4.350;2024-02-26T01:17:28;2.05;;;1.40;;
22490;SDS011;11412;50.802;4.350;2024-02-26T01:19:54;1.88;;;1.30;;
22490;SDS011;11412;50.802;4.350;2024-02-26T01:22:19;1.02;;;0.93;;
22490;SDS011;11412;50.802;4.350;2024-02-26T01:24:45;1.25;;;1.15;;
22490;SDS011;11412;50.802;4.350;2024-02-26T01:27:11;2.10;;;1.20;;
22490;SDS011;11412;50.802;4.350;2024-02-26T01:29:37;2.70;;;1.35;;
22490;SDS011;11412;50.802;4.350;2024-02-26T01:32:03;0.90;;;0.90;;
22490;SDS011;11412;50.802;4.350;2024-02-26T01:34:30;2.10;;;1.27;;
22490;SDS011;11412;50.802;4.350;2024-02-26T01:36:56;2.35;;;1.20;;
22490;SDS011;11412;50.802;4.350;2024-02-26T01:39:22;1.75;;;1.40;;
22490;SDS011;11412;50.802;4.350;2024-02-26T01:41:47;1.60;;;1.25;;
22490;SDS011;11412;50.802;4.350;2024-02-26T01:44:13;1.52;;;1.38;;
22490;SDS011;11412;50.802;4.350;2024-02-26T01:46:39;1.70;;;1.33;;
22490;SDS011;11412;50.802;4.350;2024-02-26T01:49:05;1.40;;;1.30;;
22490;SDS011;11412;50.802;4.350;2024-02-26T01:51:32;1.20;;;1.10;;
22490;SDS011;11412;50.802;4.350;2024-02-26T01:53:59;1.33;;;1.00;;
22490;SDS011;11412;50.802;4.350;2024-02-26T01:56:27;1.00;;;0.93;;
22490;SDS011;11412;50.802;4.350;2024-02-26T01:58:55;0.90;;;0.90;;
22490;SDS011;11412;50.802;4.350;2024-02-26T02:01:22;1.10;;;1.00;;
22490;SDS011;11412;50.802;4.350;2024-02-26T02:03:50;1.85;;;1.27;;
22490;SDS011;11412;50.802;4.350;2024-02-26T02:06:16;1.40;;;1.20;;
22490;SDS011;11412;50.802;4.350;2024-02-26T02:08:43;2.03;;;1.20;;
22490;SDS011;11412;50.802;4.350;2024-02-26T02:11:08;1.77;;;1.13;;
22490;SDS011;11412;50.802;4.350;2024-02-26T02:13:36;1.85;;;1.08;;
22490;SDS011;11412;50.802;4.350;2024-02-26T02:16:03;2.70;;;1.00;;
22490;SDS011;11412;50.802;4.350;2024-02-26T02:18:29;1.85;;;0.93;;
22490;SDS011;11412;50.802;4.350;2024-02-26T02:20:54;1.88;;;0.98;;
22490;SDS011;11412;50.802;4.350;2024-02-26T02:23:21;2.15;;;0.88;;
22490;SDS011;11412;50.802;4.350;2024-02-26T02:25:47;2.30;;;0.90;;
22490;SDS011;11412;50.802;4.350;2024-02-26T02:28:13;1.98;;;0.90;;
22490;SDS011;11412;50.802;4.350;2024-02-26T02:30:39;1.10;;;0.90;;
22490;SDS011;11412;50.802;4.350;2024-02-26T02:33:06;3.22;;;1.15;;
22490;SDS011;11412;50.802;4.350;2024-02-26T02:35:32;2.05;;;1.00;;
22490;SDS011;11412;50.802;4.350;2024-02-26T02:37:58;1.38;;;1.00;;
22490;SDS011;11412;50.802;4.350;2024-02-26T02:40:24;1.10;;;0.90;;
22490;SDS011;11412;50.802;4.350;2024-02-26T02:42:50;0.80;;;0.80;;
22490;SDS011;11412;50.802;4.350;2024-02-26T02:45:16;1.83;;;0.90;;
22490;SDS011;11412;50.802;4.350;2024-02-26T02:47:41;0.90;;;0.90;;
22490;SDS011;11412;50.802;4.350;2024-02-26T02:50:07;0.88;;;0.73;;
22490;SDS011;11412;50.802;4.350;2024-02-26T02:52:33;1.05;;;0.80;;
22490;SDS011;11412;50.802;4.350;2024-02-26T02:54:58;1.45;;;1.10;;
22490;SDS011;11412;50.802;4.350;2024-02-26T02:57:24;1.08;;;1.00;;
22490;SDS011;11412;50.802;4.350;2024-02-26T02:59:50;1.95;;;1.10;;
22490;SDS011;11412;50.802;4.350;2024-02-26T03:02:15;1.15;;;1.00;;
22490;SDS011;11412;50.802;4.350;2024-02-26T03:04:41;1.67;;;0.90;;
22490;SDS011;11412;50.802;4.350;2024-02-26T03:07:06;2.72;;;1.23;;
22490;SDS011;11412;50.802;4.350;2024-02-26T03:09:32;1.38;;;1.10;;
22490;SDS011;11412;50.802;4.350;2024-02-26T03:11:58;1.20;;;1.20;;
22490;SDS011;11412;50.802;4.350;2024-02-26T03:14:23;1.23;;;0.98;;
22490;SDS011;11412;50.802;4.350;2024-02-26T03:16:52;2.10;;;0.90;;
22490;SDS011;11412;50.802;4.350;2024-02-26T03:19:21;1.77;;;1.20;;
22490;SDS011;11412;50.802;4.350;2024-02-26T03:21:47;1.70;;;1.30;;
22490;SDS011;11412;50.802;4.350;2024-02-26T03:24:12;1.35;;;1.15;;
22490;SDS011;11412;50.802;4.350;2024-02-26T03:26:38;1.20;;;1.10;;
22490;SDS011;11412;50.802;4.350;2024-02-26T03:29:04;1.08;;;1.08;;
22490;SDS011;11412;50.802;4.350;2024-02-26T03:31:30;2.95;;;1.20;;
22490;SDS011;11412;50.802;4.350;2024-02-26T03:33:56;1.30;;;1.20;;
22490;SDS011;11412;50.802;4.350;2024-02-26T03:36:22;1.00;;;1.00;;
22490;SDS011;11412;50.802;4.350;2024-02-26T03:38:48;2.13;;;1.50;;
22490;SDS011;11412;50.802;4.350;2024-02-26T03:41:13;1.45;;;1.05;;
22490;SDS011;11412;50.802;4.350;2024-02-26T03:43:39;1.65;;;1.13;;
22490;SDS011;11412;50.802;4.350;2024-02-26T03:46:08;1.30;;;1.17;;
22490;SDS011;11412;50.802;4.350;2024-02-26T03:48:36;3.20;;;1.60;;
22490;SDS011;11412;50.802;4.350;2024-02-26T03:51:02;1.15;;;1.13;;
22490;SDS011;11412;50.802;4.350;2024-02-26T03:53:28;1.40;;;1.30;;
22490;SDS011;11412;50.802;4.350;2024-02-26T03:55:54;1.77;;;1.23;;
22490;SDS011;11412;50.802;4.350;2024-02-26T03:58:20;1.50;;;1.20;;
22490;SDS011;11412;50.802;4.350;2024-02-26T04:00:46;3.17;;;1.38;;
22490;SDS011;11412;50.802;4.350;2024-02-26T04:03:12;2.95;;;1.40;;
22490;SDS011;11412;50.802;4.350;2024-02-26T04:05:38;1.92;;;1.65;;
22490;SDS011;11412;50.802;4.350;2024-02-26T04:08:04;2.10;;;1.50;;
22490;SDS011;11412;50.802;4.350;2024-02-26T04:10:32;1.20;;;1.20;;
22490;SDS011;11412;50.802;4.350;2024-02-26T04:13:00;2.03;;;1.80;;
22490;SDS011;11412;50.802;4.350;2024-02-26T04:15:26;1.63;;;1.52;;
22490;SDS011;11412;50.802;4.350;2024-02-26T04:17:52;1.52;;;1.42;;
22490;SDS011;11412;50.802;4.350;2024-02-26T04:20:17;2.20;;;1.45;;
22490;SDS011;11412;50.802;4.350;2024-02-26T04:22:43;1.60;;;1.50;;
22490;SDS011;11412;50.802;4.350;2024-02-26T04:25:09;1.98;;;1.88;;
22490;SDS011;11412;50.802;4.350;2024-02-26T04:27:35;1.85;;;1.73;;
22490;SDS011;11412;50.802;4.350;2024-02-26T04:30:00;1.58;;;1.48;;
22490;SDS011;11412;50.802;4.350;2024-02-26T04:32:26;2.53;;;2.20;;
22490;SDS011;11412;50.802;4.350;2024-02-26T04:34:53;1.73;;;1.63;;
22490;SDS011;11412;50.802;4.350;2024-02-26T04:37:19;2.75;;;2.25;;
22490;SDS011;11412;50.802;4.350;2024-02-26T04:39:46;2.47;;;2.00;;
22490;SDS011;11412;50.802;4.350;2024-02-26T04:42:11;1.60;;;1.60;;
22490;SDS011;11412;50.802;4.350;2024-02-26T04:44:37;1.90;;;1.80;;
22490;SDS011;11412;50.802;4.350;2024-02-26T04:47:03;2.25;;;2.10;;
22490;SDS011;11412;50.802;4.350;2024-02-26T04:49:28;2.42;;;2.20;;
22490;SDS011;11412;50.802;4.350;2024-02-26T04:51:54;4.90;;;2.10;;
22490;SDS011;11412;50.802;4.350;2024-02-26T04:54:20;2.60;;;2.40;;
22490;SDS011;11412;50.802;4.350;2024-02-26T04:56:46;3.45;;;3.15;;
22490;SDS011;11412;50.802;4.350;2024-02-26T04:59:12;3.10;;;2.25;;
22490;SDS011;11412;50.802;4.350;2024-02-26T05:01:37;2.80;;;2.60;;
22490;SDS011;11412;50.802;4.350;2024-02-26T05:04:04;2.53;;;2.42;;
22490;SDS011;11412;50.802;4.350;2024-02-26T05:06:30;3.17;;;2.90;;
22490;SDS011;11412;50.802;4.350;2024-02-26T05:08:55;3.05;;;2.85;;
22490;SDS011;11412;50.802;4.350;2024-02-26T05:11:21;3.45;;;3.00;;
22490;SDS011;11412;50.802;4.350;2024-02-26T05:13:47;3.50;;;3.20;;
22490;SDS011;11412;50.802;4.350;2024-02-26T05:16:13;3.58;;;3.38;;
22490;SDS011;11412;50.802;4.350;2024-02-26T05:18:39;3.38;;;3.17;;
22490;SDS011;11412;50.802;4.350;2024-02-26T05:21:04;3.05;;;2.90;;
22490;SDS011;11412;50.802;4.350;2024-02-26T05:23:30;3.40;;;3.20;;
22490;SDS011;11412;50.802;4.350;2024-02-26T05:25:56;3.40;;;3.13;;
22490;SDS011;11412;50.802;4.350;2024-02-26T05:28:22;4.88;;;3.42;;
22490;SDS011;11412;50.802;4.350;2024-02-26T05:30:48;3.97;;;3.67;;
22490;SDS011;11412;50.802;4.350;2024-02-26T05:33:13;4.15;;;3.85;;
22490;SDS011;11412;50.802;4.350;2024-02-26T05:35:39;4.07;;;3.78;;
22490;SDS011;11412;50.802;4.350;2024-02-26T05:38:05;4.22;;;3.83;;
22490;SDS011;11412;50.802;4.350;2024-02-26T05:40:31;4.80;;;4.50;;
22490;SDS011;11412;50.802;4.350;2024-02-26T05:42:57;5.18;;;4.53;;
22490;SDS011;11412;50.802;4.350;2024-02-26T05:45:22;5.07;;;4.68;;
22490;SDS011;11412;50.802;4.350;2024-02-26T05:47:48;5.13;;;4.72;;
22490;SDS011;11412;50.802;4.350;2024-02-26T05:50:14;6.88;;;5.78;;
22490;SDS011;11412;50.802;4.350;2024-02-26T05:52:40;7.03;;;5.85;;
22490;SDS011;11412;50.802;4.350;2024-02-26T05:55:06;6.25;;;5.75;;
22490;SDS011;11412;50.802;4.350;2024-02-26T05:57:33;6.55;;;6.05;;
22490;SDS011;11412;50.802;4.350;2024-02-26T05:59:59;7.63;;;6.97;;
22490;SDS011;11412;50.802;4.350;2024-02-26T06:02:28;7.50;;;6.80;;
22490;SDS011;11412;50.802;4.350;2024-02-26T06:04:54;8.10;;;7.03;;
22490;SDS011;11412;50.802;4.350;2024-02-26T06:07:20;8.45;;;7.65;;
22490;SDS011;11412;50.802;4.350;2024-02-26T06:09:45;7.93;;;7.22;;
22490;SDS011;11412;50.802;4.350;2024-02-26T06:12:11;10.55;;;8.75;;
22490;SDS011;11412;50.802;4.350;2024-02-26T06:14:37;8.98;;;7.82;;
22490;SDS011;11412;50.802;4.350;2024-02-26T06:17:02;10.43;;;7.78;;
22490;SDS011;11412;50.802;4.350;2024-02-26T06:19:28;9.68;;;8.70;;
22490;SDS011;11412;50.802;4.350;2024-02-26T06:21:54;9.55;;;8.65;;
22490;SDS011;11412;50.802;4.350;2024-02-26T06:24:19;9.43;;;8.20;;
22490;SDS011;11412;50.802;4.350;2024-02-26T06:26:47;9.55;;;8.43;;
22490;SDS011;11412;50.802;4.350;2024-02-26T06:29:13;8.52;;;7.80;;
22490;SDS011;11412;50.802;4.350;2024-02-26T06:31:39;9.45;;;8.65;;
22490;SDS011;11412;50.802;4.350;2024-02-26T06:34:05;9.40;;;8.50;;
22490;SDS011;11412;50.802;4.350;2024-02-26T06:36:30;7.97;;;7.28;;
22490;SDS011;11412;50.802;4.350;2024-02-26T06:38:57;9.35;;;8.52;;
22490;SDS011;11412;50.802;4.350;2024-02-26T06:41:22;9.40;;;8.43;;
22490;SDS011;11412;50.802;4.350;2024-02-26T06:43:55;9.20;;;8.38;;
22490;SDS011;11412;50.802;4.350;2024-02-26T06:46:20;8.90;;;8.10;;
22490;SDS011;11412;50.802;4.350;2024-02-26T06:48:47;9.25;;;8.35;;
22490;SDS011;11412;50.802;4.350;2024-02-26T06:51:14;9.13;;;8.32;;
22490;SDS011;11412;50.802;4.350;2024-02-26T06:53:39;8.50;;;7.80;;
22490;SDS011;11412;50.802;4.350;2024-02-26T06:56:05;8.52;;;7.47;;
22490;SDS011;11412;50.802;4.350;2024-02-26T06:58:31;8.30;;;7.60;;
22490;SDS011;11412;50.802;4.350;2024-02-26T07:00:57;8.57;;;7.78;;
22490;SDS011;11412;50.802;4.350;2024-02-26T07:03:22;8.60;;;7.90;;
22490;SDS011;11412;50.802;4.350;2024-02-26T07:05:49;7.90;;;7.20;;
22490;SDS011;11412;50.802;4.350;2024-02-26T07:08:15;8.57;;;7.85;;
22490;SDS011;11412;50.802;4.350;2024-02-26T07:10:41;8.05;;;7.28;;
22490;SDS011;11412;50.802;4.350;2024-02-26T07:13:08;9.07;;;8.27;;
22490;SDS011;11412;50.802;4.350;2024-02-26T07:15:34;8.93;;;8.13;;
22490;SDS011;11412;50.802;4.350;2024-02-26T07:17:59;9.23;;;8.40;;
22490;SDS011;11412;50.802;4.350;2024-02-26T07:20:28;9.43;;;8.63;;
22490;SDS011;11412;50.802;4.350;2024-02-26T07:22:55;9.13;;;8.32;;
22490;SDS011;11412;50.802;4.350;2024-02-26T07:25:21;8.57;;;7.70;;
22490;SDS011;11412;50.802;4.350;2024-02-26T07:27:47;9.07;;;8.27;;
22490;SDS011;11412;50.802;4.350;2024-02-26T07:30:14;8.38;;;7.78;;
22490;SDS011;11412;50.802;4.350;2024-02-26T07:32:40;7.93;;;7.32;;
22490;SDS011;11412;50.802;4.350;2024-02-26T07:35:05;8.98;;;8.20;;
22490;SDS011;11412;50.802;4.350;2024-02-26T07:37:31;8.40;;;7.80;;
22490;SDS011;11412;50.802;4.350;2024-02-26T07:39:57;8.90;;;8.20;;
22490;SDS011;11412;50.802;4.350;2024-02-26T07:42:23;9.00;;;8.20;;
22490;SDS011;11412;50.802;4.350;2024-02-26T07:44:48;8.70;;;7.90;;
22490;SDS011;11412;50.802;4.350;2024-02-26T07:47:14;8.90;;;8.20;;
22490;SDS011;11412;50.802;4.350;2024-02-26T07:49:40;8.55;;;7.85;;
22490;SDS011;11412;50.802;4.350;2024-02-26T07:52:06;8.45;;;7.85;;
22490;SDS011;11412;50.802;4.350;2024-02-26T07:54:31;8.35;;;7.50;;
22490;SDS011;11412;50.802;4.350;2024-02-26T07:56:57;8.63;;;7.50;;
22490;SDS011;11412;50.802;4.350;2024-02-26T07:59:23;8.48;;;7.65;;
22490;SDS011;11412;50.802;4.350;2024-02-26T08:01:50;8.63;;;7.88;;
22490;SDS011;11412;50.802;4.350;2024-02-26T08:04:16;9.75;;;8.75;;
22490;SDS011;11412;50.802;4.350;2024-02-26T08:06:42;7.50;;;6.90;;
22490;SDS011;11412;50.802;4.350;2024-02-26T08:09:08;8.00;;;7.35;;
22490;SDS011;11412;50.802;4.350;2024-02-26T08:11:34;8.18;;;7.47;;
22490;SDS011;11412;50.802;4.350;2024-02-26T08:14:00;8.25;;;7.55;;
22490;SDS011;11412;50.802;4.350;2024-02-26T08:16:26;7.55;;;7.05;;
22490;SDS011;11412;50.802;4.350;2024-02-26T08:18:52;8.20;;;7.63;;
22490;SDS011;11412;50.802;4.350;2024-02-26T08:21:18;8.05;;;7.45;;
22490;SDS011;11412;50.802;4.350;2024-02-26T08:23:43;8.80;;;7.93;;
22490;SDS011;11412;50.802;4.350;2024-02-26T08:26:10;7.43;;;6.93;;
22490;SDS011;11412;50.802;4.350;2024-02-26T08:28:37;7.57;;;6.97;;
22490;SDS011;11412;50.802;4.350;2024-02-26T08:31:03;7.20;;;6.70;;
22490;SDS011;11412;50.802;4.350;2024-02-26T08:33:29;7.55;;;6.85;;
22490;SDS011;11412;50.802;4.350;2024-02-26T08:35:55;6.90;;;6.30;;
22490;SDS011;11412;50.802;4.350;2024-02-26T08:38:21;7.43;;;6.82;;
22490;SDS011;11412;50.802;4.350;2024-02-26T08:40:48;7.22;;;6.72;;
22490;SDS011;11412;50.802;4.350;2024-02-26T08:43:14;7.45;;;6.82;;
22490;SDS011;11412;50.802;4.350;2024-02-26T08:45:39;7.20;;;6.70;;
22490;SDS011;11412;50.802;4.350;2024-02-26T08:48:05;7.10;;;6.50;;
22490;SDS011;11412;50.802;4.350;2024-02-26T08:50:32;6.80;;;6.30;;
22490;SDS011;11412;50.802;4.350;2024-02-26T08:52:58;6.30;;;5.88;;
22490;SDS011;11412;50.802;4.350;2024-02-26T08:55:26;6.78;;;6.28;;
22490;SDS011;11412;50.802;4.350;2024-02-26T08:57:51;6.65;;;6.15;;
22490;SDS011;11412;50.802;4.350;2024-02-26T09:00:17;6.97;;;6.32;;
22490;SDS011;11412;50.802;4.350;2024-02-26T09:02:45;7.00;;;6.45;;
22490;SDS011;11412;50.802;4.350;2024-02-26T09:05:14;7.18;;;6.68;;
22490;SDS011;11412;50.802;4.350;2024-02-26T09:07:40;7.00;;;6.57;;
22490;SDS011;11412;50.802;4.350;2024-02-26T09:10:06;7.20;;;6.70;;
22490;SDS011;11412;50.802;4.350;2024-02-26T09:12:36;7.55;;;6.85;;
22490;SDS011;11412;50.802;4.350;2024-02-26T09:15:02;7.65;;;6.82;;
22490;SDS011;11412;50.802;4.350;2024-02-26T09:17:28;7.38;;;6.88;;
22490;SDS011;11412;50.802;4.350;2024-02-26T09:19:54;6.88;;;6.28;;
22490;SDS011;11412;50.802;4.350;2024-02-26T09:22:20;7.15;;;6.55;;
22490;SDS011;11412;50.802;4.350;2024-02-26T09:24:46;7.18;;;6.60;;
22490;SDS011;11412;50.802;4.350;2024-02-26T09:27:11;7.65;;;7.15;;
22490;SDS011;11412;50.802;4.350;2024-02-26T09:29:37;6.85;;;6.35;;
22490;SDS011;11412;50.802;4.350;2024-02-26T09:32:03;6.97;;;6.47;;
22490;SDS011;11412;50.802;4.350;2024-02-26T09:34:29;7.00;;;6.50;;
22490;SDS011;11412;50.802;4.350;2024-02-26T09:36:54;6.68;;;6.18;;
22490;SDS011;11412;50.802;4.350;2024-02-26T09:39:20;6.50;;;6.00;;
22490;SDS011;11412;50.802;4.350;2024-02-26T09:41:47;6.88;;;6.38;;
22490;SDS011;11412;50.802;4.350;2024-02-26T09:44:15;6.97;;;6.45;;
22490;SDS011;11412;50.802;4.350;2024-02-26T09:46:47;7.60;;;7.00;;
22490;SDS011;11412;50.802;4.350;2024-02-26T09:49:15;7.85;;;7.25;;
22490;SDS011;11412;50.802;4.350;2024-02-26T09:51:41;6.50;;;6.05;;
22490;SDS011;11412;50.802;4.350;2024-02-26T09:54:07;6.72;;;6.28;;
22490;SDS011;11412;50.802;4.350;2024-02-26T09:56:35;6.45;;;6.03;;
22490;SDS011;11412;50.802;4.350;2024-02-26T09:59:05;6.40;;;5.97;;
22490;SDS011;11412;50.802;4.350;2024-02-26T10:01:35;6.45;;;6.05;;
22490;SDS011;11412;50.802;4.350;2024-02-26T10:04:03;6.38;;;5.97;;
22490;SDS011;11412;50.802;4.350;2024-02-26T10:06:29;8.18;;;6.32;;
22490;SDS011;11412;50.802;4.350;2024-02-26T10:08:55;6.30;;;5.72;;
22490;SDS011;11412;50.802;4.350;2024-02-26T10:11:23;6.97;;;6.30;;
22490;SDS011;11412;50.802;4.350;2024-02-26T10:13:51;6.40;;;5.88;;
22490;SDS011;11412;50.802;4.350;2024-02-26T10:16:16;6.82;;;6.32;;
22490;SDS011;11412;50.802;4.350;2024-02-26T10:21:19;6.00;;;5.60;;
22490;SDS011;11412;50.802;4.350;2024-02-26T10:23:45;6.00;;;5.57;;
22490;SDS011;11412;50.802;4.350;2024-02-26T10:26:12;5.10;;;4.70;;
22490;SDS011;11412;50.802;4.350;2024-02-26T10:28:39;5.28;;;4.88;;
22490;SDS011;11412;50.802;4.350;2024-02-26T10:31:06;5.20;;;4.90;;
22490;SDS011;11412;50.802;4.350;2024-02-26T10:33:35;5.07;;;4.72;;
22490;SDS011;11412;50.802;4.350;2024-02-26T10:36:03;5.63;;;5.25;;
22490;SDS011;11412;50.802;4.350;2024-02-26T10:38:35;6.10;;;5.65;;
22490;SDS011;11412;50.802;4.350;2024-02-26T10:41:02;4.50;;;4.30;;
22490;SDS011;11412;50.802;4.350;2024-02-26T10:43:28;4.90;;;4.60;;
22490;SDS011;11412;50.802;4.350;2024-02-26T10:45:55;5.40;;;4.38;;
22490;SDS011;11412;50.802;4.350;2024-02-26T10:48:21;4.45;;;4.22;;
22490;SDS011;11412;50.802;4.350;2024-02-26T10:50:47;4.40;;;4.20;;
22490;SDS011;11412;50.802;4.350;2024-02-26T10:53:16;4.40;;;4.03;;
22490;SDS011;11412;50.802;4.350;2024-02-26T10:55:48;4.60;;;4.20;;
22490;SDS011;11412;50.802;4.350;2024-02-26T10:58:17;3.83;;;3.63;;
22490;SDS011;11412;50.802;4.350;2024-02-26T11:00:44;3.67;;;3.47;;
22490;SDS011;11412;50.802;4.350;2024-02-26T11:03:12;4.05;;;3.85;;
22490;SDS011;11412;50.802;4.350;2024-02-26T11:05:42;4.00;;;3.80;;
22490;SDS011;11412;50.802;4.350;2024-02-26T11:08:09;4.18;;;3.97;;
22490;SDS011;11412;50.802;4.350;2024-02-26T11:10:36;3.67;;;3.47;;
22490;SDS011;11412;50.802;4.350;2024-02-26T11:13:03;3.72;;;3.53;;
22490;SDS011;11412;50.802;4.350;2024-02-26T11:15:32;4.15;;;3.88;;
22490;SDS011;11412;50.802;4.350;2024-02-26T11:17:59;3.75;;;3.50;;
22490;SDS011;11412;50.802;4.350;2024-02-26T11:20:28;3.45;;;3.25;;
22490;SDS011;11412;50.802;4.350;2024-02-26T11:22:54;3.35;;;3.15;;
22490;SDS011;11412;50.802;4.350;2024-02-26T11:25:20;3.40;;;3.20;;
22490;SDS011;11412;50.802;4.350;2024-02-26T11:27:49;3.40;;;3.20;;
22490;SDS011;11412;50.802;4.350;2024-02-26T11:30:17;3.55;;;3.35;;
22490;SDS011;11412;50.802;4.350;2024-02-26T11:32:47;3.10;;;3.00;;
22490;SDS011;11412;50.802;4.350;2024-02-26T11:35:13;3.13;;;2.95;;
22490;SDS011;11412;50.802;4.350;2024-02-26T11:37:42;3.20;;;3.00;;
22490;SDS011;11412;50.802;4.350;2024-02-26T11:40:22;3.13;;;3.03;;
22490;SDS011;11412;50.802;4.350;2024-02-26T11:42:53;2.85;;;2.67;;
22490;SDS011;11412;50.802;4.350;2024-02-26T11:45:38;3.33;;;3.13;;
22490;SDS011;11412;50.802;4.350;2024-02-26T11:48:22;2.90;;;2.80;;
22490;SDS011;11412;50.802;4.350;2024-02-26T11:53:20;2.90;;;2.70;;
22490;SDS011;11412;50.802;4.350;2024-02-26T11:58:39;2.75;;;2.65;;
22490;SDS011;11412;50.802;4.350;2024-02-26T12:01:05;2.50;;;2.40;;
22490;SDS011;11412;50.802;4.350;2024-02-26T12:03:51;2.45;;;2.35;;
22490;SDS011;11412;50.802;4.350;2024-02-26T12:06:19;2.63;;;2.50;;
22490;SDS011;11412;50.802;4.350;2024-02-26T12:08:46;2.90;;;2.70;;
22490;SDS011;11412;50.802;4.350;2024-02-26T12:11:15;2.65;;;2.55;;
22490;SDS011;11412;50.802;4.350;2024-02-26T12:13:41;2.88;;;2.78;;
22490;SDS011;11412;50.802;4.350;2024-02-26T12:16:09;2.78;;;2.67;;
22490;SDS011;11412;50.802;4.350;2024-02-26T12:18:35;2.40;;;2.30;;
22490;SDS011;11412;50.802;4.350;2024-02-26T12:21:02;2.53;;;2.42;;
22490;SDS011;11412;50.802;4.350;2024-02-26T12:23:29;2.72;;;2.60;;
22490;SDS011;11412;50.802;4.350;2024-02-26T12:25:58;2.67;;;2.47;;
22490;SDS011;11412;50.802;4.350;2024-02-26T12:28:30;3.45;;;3.08;;
22490;SDS011;11412;50.802;4.350;2024-02-26T12:30:56;3.33;;;3.13;;
22490;SDS011;11412;50.802;4.350;2024-02-26T12:33:25;3.20;;;3.00;;
22490;SDS011;11412;50.802;4.350;2024-02-26T12:35:52;3.10;;;2.90;;
22490;SDS011;11412;50.802;4.350;2024-02-26T12:38:18;4.50;;;2.45;;
22490;SDS011;11412;50.802;4.350;2024-02-26T12:40:44;2.67;;;2.58;;
22490;SDS011;11412;50.802;4.350;2024-02-26T12:43:10;2.63;;;2.53;;
22490;SDS011;11412;50.802;4.350;2024-02-26T12:45:40;2.50;;;2.35;;
22490;SDS011;11412;50.802;4.350;2024-02-26T12:48:06;2.22;;;2.13;;
22490;SDS011;11412;50.802;4.350;2024-02-26T12:50:32;2.72;;;2.53;;
22490;SDS011;11412;50.802;4.350;2024-02-26T12:52:58;2.35;;;2.25;;
22490;SDS011;11412;50.802;4.350;2024-02-26T12:55:25;2.33;;;2.20;;
22490;SDS011;11412;50.802;4.350;2024-02-26T12:57:52;2.90;;;2.13;;
22490;SDS011;11412;50.802;4.350;2024-02-26T13:00:26;2.13;;;1.92;;
22490;SDS011;11412;50.802;4.350;2024-02-26T13:02:53;2.10;;;2.00;;
22490;SDS011;11412;50.802;4.350;2024-02-26T13:05:22;2.35;;;2.25;;
22490;SDS011;11412;50.802;4.350;2024-02-26T13:07:48;2.38;;;2.28;;
22490;SDS011;11412;50.802;4.350;2024-02-26T13:10:15;2.13;;;2.03;;
22490;SDS011;11412;50.802;4.350;2024-02-26T13:12:46;2.15;;;2.05;;
22490;SDS011;11412;50.802;4.350;2024-02-26T13:15:16;2.38;;;2.28;;
22490;SDS011;11412;50.802;4.350;2024-02-26T13:17:44;3.15;;;2.78;;
22490;SDS011;11412;50.802;4.350;2024-02-26T13:20:24;2.92;;;2.72;;
22490;SDS011;11412;50.802;4.350;2024-02-26T13:25:56;2.90;;;2.70;;
22490;SDS011;11412;50.802;4.350;2024-02-26T13:28:21;3.45;;;3.15;;
22490;SDS011;11412;50.802;4.350;2024-02-26T13:30:52;3.25;;;3.05;;
22490;SDS011;11412;50.802;4.350;2024-02-26T13:33:22;3.53;;;3.22;;
22490;SDS011;11412;50.802;4.350;2024-02-26T13:35:48;3.50;;;3.30;;
22490;SDS011;11412;50.802;4.350;2024-02-26T13:38:14;3.58;;;3.38;;
22490;SDS011;11412;50.802;4.350;2024-02-26T13:40:40;3.70;;;3.50;;
22490;SDS011;11412;50.802;4.350;2024-02-26T13:43:06;3.63;;;3.42;;
22490;SDS011;11412;50.802;4.350;2024-02-26T13:45:35;4.15;;;3.85;;
22490;SDS011;11412;50.802;4.350;2024-02-26T13:48:03;4.53;;;4.18;;
22490;SDS011;11412;50.802;4.350;2024-02-26T13:50:30;4.18;;;3.90;;
22490;SDS011;11412;50.802;4.350;2024-02-26T13:52:56;4.80;;;4.25;;
22490;SDS011;11412;50.802;4.350;2024-02-26T13:55:23;4.30;;;4.00;;
22490;SDS011;11412;50.802;4.350;2024-02-26T13:57:53;5.00;;;4.60;;
22490;SDS011;11412;50.802;4.350;2024-02-26T14:00:19;5.13;;;4.72;;
22490;SDS011;11412;50.802;4.350;2024-02-26T14:02:45;5.38;;;4.88;;
22490;SDS011;11412;50.802;4.350;2024-02-26T14:05:11;5.22;;;4.85;;
22490;SDS011;11412;50.802;4.350;2024-02-26T14:07:37;5.82;;;5.30;;
22490;SDS011;11412;50.802;4.350;2024-02-26T14:10:03;6.53;;;6.03;;
22490;SDS011;11412;50.802;4.350;2024-02-26T14:12:29;5.65;;;5.20;;
22490;SDS011;11412;50.802;4.350;2024-02-26T14:14:54;5.90;;;5.50;;
22490;SDS011;11412;50.802;4.350;2024-02-26T14:17:23;6.28;;;5.78;;
22490;SDS011;11412;50.802;4.350;2024-02-26T14:19:49;6.07;;;5.57;;
22490;SDS011;11412;50.802;4.350;2024-02-26T14:22:15;6.50;;;5.90;;
22490;SDS011;11412;50.802;4.350;2024-02-26T14:24:41;7.88;;;6.22;;
22490;SDS011;11412;50.802;4.350;2024-02-26T14:27:11;6.43;;;5.90;;
22490;SDS011;11412;50.802;4.350;2024-02-26T14:29:41;6.47;;;5.88;;
22490;SDS011;11412;50.802;4.350;2024-02-26T14:32:08;6.60;;;6.10;;
22490;SDS011;11412;50.802;4.350;2024-02-26T14:34:34;7.53;;;6.82;;
22490;SDS011;11412;50.802;4.350;2024-02-26T14:37:01;7.18;;;6.53;;
22490;SDS011;11412;50.802;4.350;2024-02-26T14:39:27;7.07;;;6.47;;
22490;SDS011;11412;50.802;4.350;2024-02-26T14:41:54;6.95;;;6.35;;
22490;SDS011;11412;50.802;4.350;2024-02-26T14:44:21;7.05;;;6.38;;
22490;SDS011;11412;50.802;4.350;2024-02-26T14:46:50;6.25;;;5.75;;
22490;SDS011;11412;50.802;4.350;2024-02-26T14:49:16;6.75;;;6.20;;
22490;SDS011;11412;50.802;4.350;2024-02-26T14:51:42;7.20;;;6.60;;
22490;SDS011;11412;50.802;4.350;2024-02-26T14:54:10;6.65;;;6.05;;
22490;SDS011;11412;50.802;4.350;2024-02-26T14:56:36;6.88;;;6.07;;